Time;durP1;ratioP1;P1;durP2;ratioP2;P2;SDS_P1;SDS_P2;PMS_P1;PMS_P2;Temp;Humidity;BMP_temperature;BMP_pressure;BME280_temperature;BME280_humidity;BME280_pressure;Samples;Min_cycle;Max_cycle;Signal;HPM_P1;HPM_P2
2021/09/11 00:01:04;;;;;;;15.65;14.25;;;21.10;93.30;;;;;;5093233;28;20437;-69
2021/09/11 00:03:30;;;;;;;17.13;14.75;;;21.10;93.40;;;;;;5094084;28;20032;-63
2021/09/11 00:05:56;;;;;;;16.23;14.63;;;21.00;93.50;;;;;;5092656;28;20032;-66
2021/09/11 00:08:21;;;;;;;16.33;14.70;;;21.00;93.80;;;;;;5091249;28;20036;-66
2021/09/11 00:10:47;;;;;;;18.42;15.18;;;21.00;93.60;;;;;;5095085;28;20077;-67
2021/09/11 00:13:16;;;;;;;17.50;15.68;;;21.00;93.70;;;;;;5094819;28;20025;-68
2021/09/11 00:15:42;;;;;;;16.77;15.27;;;21.00;93.70;;;;;;5096560;28;20047;-69
2021/09/11 00:18:07;;;;;;;16.25;14.73;;;20.90;93.90;;;;;;5096285;28;20379;-66
2021/09/11 00:20:33;;;;;;;15.48;13.98;;;20.90;94.00;;;;;;5096225;28;20414;-68
2021/09/11 00:23:00;;;;;;;16.73;15.20;;;20.80;94.20;;;;;;5096240;28;20043;-69
2021/09/11 00:25:27;;;;;;;17.33;15.50;;;20.90;94.00;;;;;;5095067;28;20039;-70
2021/09/11 00:27:52;;;;;;;17.27;15.57;;;20.80;94.20;;;;;;5094664;28;20028;-67
2021/09/11 00:30:18;;;;;;;17.27;15.77;;;20.70;94.60;;;;;;5095725;28;20089;-66
2021/09/11 00:32:44;;;;;;;17.60;15.88;;;20.60;94.60;;;;;;5095053;28;20067;-64
2021/09/11 00:35:17;;;;;;;17.48;15.77;;;20.70;94.60;;;;;;5095480;28;20040;-65
2021/09/11 00:37:43;;;;;;;19.25;17.35;;;20.70;94.40;;;;;;5095964;28;20479;-65
2021/09/11 00:40:11;;;;;;;18.05;15.52;;;20.60;94.80;;;;;;5093962;28;20039;-64
2021/09/11 00:42:37;;;;;;;19.52;17.63;;;20.50;95.00;;;;;;5093686;28;20090;-67
2021/09/11 00:45:04;;;;;;;18.50;16.58;;;20.50;95.00;;;;;;5094281;28;20399;-66
2021/09/11 00:47:32;;;;;;;17.40;15.02;;;20.40;95.10;;;;;;5095430;28;20039;-66
2021/09/11 00:49:58;;;;;;;18.05;16.38;;;20.50;95.20;;;;;;5095448;28;20028;-65
2021/09/11 00:52:23;;;;;;;17.60;15.80;;;20.50;94.90;;;;;;5059884;28;20407;-65
2021/09/11 00:54:50;;;;;;;17.52;15.80;;;20.60;95.00;;;;;;5093830;28;20418;-66
2021/09/11 00:57:16;;;;;;;22.48;19.25;;;20.60;95.00;;;;;;5095130;28;20390;-66
2021/09/11 00:59:41;;;;;;;18.25;16.45;;;20.60;94.90;;;;;;5094582;28;20509;-65
2021/09/11 01:02:11;;;;;;;19.80;17.80;;;20.70;94.90;;;;;;5094247;28;20118;-66
2021/09/11 01:04:37;;;;;;;18.73;16.92;;;20.70;94.80;;;;;;5095307;28;20046;-65
2021/09/11 01:07:03;;;;;;;18.15;16.45;;;20.70;94.90;;;;;;5094510;28;20028;-63
2021/09/11 01:09:30;;;;;;;18.58;16.67;;;20.70;94.80;;;;;;5095641;28;20394;-65
2021/09/11 01:11:56;;;;;;;17.33;15.52;;;20.70;95.00;;;;;;5094467;28;20024;-66
2021/09/11 01:14:21;;;;;;;16.58;15.07;;;20.70;95.10;;;;;;5094801;28;20501;-66
2021/09/11 01:16:47;;;;;;;17.50;15.73;;;20.80;94.80;;;;;;5095284;28;20429;-64
2021/09/11 01:19:13;;;;;;;17.80;16.10;;;20.80;94.80;;;;;;5094910;28;20040;-65
2021/09/11 01:21:40;;;;;;;17.20;15.52;;;20.90;94.70;;;;;;5095488;28;20102;-65
2021/09/11 01:24:06;;;;;;;16.25;14.68;;;20.90;94.60;;;;;;5093284;28;20403;-67
2021/09/11 01:26:31;;;;;;;18.45;16.67;;;21.00;94.60;;;;;;5096779;28;20032;-66
2021/09/11 01:28:57;;;;;;;16.05;14.35;;;20.90;94.70;;;;;;5095551;28;20433;-66
2021/09/11 01:31:22;;;;;;;17.35;15.75;;;20.90;94.90;;;;;;5095457;28;20024;-66
2021/09/11 01:33:48;;;;;;;19.90;17.58;;;20.80;94.80;;;;;;5096587;28;20537;-67
2021/09/11 01:36:14;;;;;;;18.52;16.73;;;20.60;95.40;;;;;;5097536;28;20064;-67
2021/09/11 01:38:39;;;;;;;18.70;16.90;;;20.50;95.60;;;;;;5095881;28;20432;-66
2021/09/11 01:41:05;;;;;;;18.52;16.75;;;20.50;95.50;;;;;;5095546;28;20028;-65
2021/09/11 01:43:33;;;;;;;20.17;17.25;;;20.50;95.50;;;;;;5077262;28;20040;-64
2021/09/11 01:45:59;;;;;;;19.35;17.48;;;20.50;95.70;;;;;;5094832;28;20046;-67
2021/09/11 01:48:28;;;;;;;18.42;16.63;;;20.40;95.90;;;;;;5093811;28;20028;-64
2021/09/11 01:50:53;;;;;;;18.20;16.30;;;20.30;96.10;;;;;;5095348;28;20633;-66
2021/09/11 01:53:20;;;;;;;18.67;16.77;;;20.10;96.70;;;;;;5093629;28;20044;-66
2021/09/11 01:55:46;;;;;;;18.15;16.45;;;20.10;97.00;;;;;;5093623;28;20024;-63
2021/09/11 01:58:12;;;;;;;18.75;17.02;;;20.10;97.10;;;;;;5094249;28;20032;-62
2021/09/11 02:00:39;;;;;;;19.90;17.92;;;20.00;97.30;;;;;;5093848;28;20415;-59
2021/09/11 02:03:06;;;;;;;19.92;18.10;;;20.00;97.40;;;;;;5093557;28;20036;-59
2021/09/11 02:05:31;;;;;;;21.60;17.13;;;20.00;97.50;;;;;;5093760;28;20028;-62
2021/09/11 02:07:57;;;;;;;19.63;17.60;;;20.00;97.70;;;;;;5092916;28;20058;-58
2021/09/11 02:10:23;;;;;;;18.80;17.08;;;20.20;97.50;;;;;;5093375;28;20040;-59
2021/09/11 02:12:48;;;;;;;19.25;17.55;;;20.20;97.90;;;;;;5093333;28;20044;-59
2021/09/11 02:15:14;;;;;;;18.77;16.77;;;20.20;97.40;;;;;;5093883;28;20039;-58
2021/09/11 02:17:41;;;;;;;18.52;16.55;;;20.20;97.50;;;;;;5078329;28;20165;-60
2021/09/11 02:20:08;;;;;;;18.83;16.92;;;20.30;97.70;;;;;;5079285;28;20052;-58
2021/09/11 02:22:34;;;;;;;17.48;15.43;;;20.30;97.30;;;;;;5092845;28;20063;-59
2021/09/11 02:24:59;;;;;;;17.75;16.15;;;20.40;97.40;;;;;;5093314;28;20483;-59
2021/09/11 02:27:25;;;;;;;17.70;16.10;;;20.50;97.00;;;;;;5092870;28;20103;-57
2021/09/11 02:29:50;;;;;;;17.83;16.15;;;20.50;97.00;;;;;;5093199;28;20562;-57
2021/09/11 02:32:16;;;;;;;17.02;15.43;;;20.30;97.20;;;;;;5092857;28;20028;-57
2021/09/11 02:34:42;;;;;;;17.00;15.30;;;20.20;97.40;;;;;;5091519;28;20368;-58
2021/09/11 02:37:09;;;;;;;15.43;13.93;;;20.10;97.40;;;;;;5092052;28;20123;-56
2021/09/11 02:39:35;;;;;;;15.73;14.20;;;20.10;97.20;;;;;;5092895;28;20024;-58
2021/09/11 02:42:01;;;;;;;15.77;14.15;;;20.20;97.10;;;;;;5092440;28;20032;-58
2021/09/11 02:44:26;;;;;;;15.55;14.13;;;20.10;97.40;;;;;;5091801;28;20034;-58
2021/09/11 02:46:52;;;;;;;15.15;13.65;;;20.10;97.30;;;;;;5092971;28;20054;-59
2021/09/11 02:49:17;;;;;;;15.40;13.88;;;20.20;97.10;;;;;;5092709;28;20036;-59
2021/09/11 02:51:43;;;;;;;15.82;14.30;;;20.20;97.10;;;;;;5092871;28;20034;-60
2021/09/11 02:54:09;;;;;;;16.67;14.00;;;20.30;97.20;;;;;;5092664;28;20403;-60
2021/09/11 02:56:34;;;;;;;15.82;13.52;;;20.40;97.10;;;;;;5093179;28;20043;-60
2021/09/11 02:59:00;;;;;;;15.73;14.07;;;20.40;97.10;;;;;;5093657;28;20559;-58
2021/09/11 03:01:25;;;;;;;15.15;13.57;;;20.50;96.70;;;;;;5093069;28;20036;-59
2021/09/11 03:03:51;;;;;;;15.65;14.25;;;20.40;96.70;;;;;;5092047;28;20135;-60
2021/09/11 03:06:17;;;;;;;15.20;13.68;;;20.50;96.50;;;;;;5092452;28;20020;-59
2021/09/11 03:08:42;;;;;;;15.68;14.02;;;20.50;96.60;;;;;;5092122;28;20028;-59
2021/09/11 03:11:08;;;;;;;14.73;13.38;;;20.40;96.70;;;;;;5092382;28;20032;-60
2021/09/11 03:13:34;;;;;;;14.98;13.57;;;20.30;96.90;;;;;;5092314;28;20457;-59
2021/09/11 03:15:59;;;;;;;15.95;14.48;;;20.30;96.90;;;;;;5092282;28;20040;-59
2021/09/11 03:18:25;;;;;;;15.63;14.13;;;20.40;96.70;;;;;;5092104;28;20040;-59
2021/09/11 03:20:51;;;;;;;15.35;13.95;;;20.20;97.10;;;;;;5092534;28;20416;-59
2021/09/11 03:23:17;;;;;;;15.73;14.20;;;20.20;97.10;;;;;;5091937;28;20040;-58
2021/09/11 03:25:43;;;;;;;16.48;13.82;;;20.10;97.10;;;;;;5092925;28;20154;-58
2021/09/11 03:28:09;;;;;;;16.67;15.00;;;20.10;97.10;;;;;;5092189;28;20437;-59
2021/09/11 03:30:34;;;;;;;16.23;14.35;;;20.00;97.50;;;;;;5092321;28;20028;-60
2021/09/11 03:33:00;;;;;;;14.75;13.45;;;19.90;97.60;;;;;;5092298;28;20123;-61
2021/09/11 03:35:26;;;;;;;15.95;13.85;;;19.90;97.80;;;;;;5092539;28;20065;-58
2021/09/11 03:37:53;;;;;;;14.20;12.73;;;19.90;97.80;;;;;;5092380;28;20036;-59
2021/09/11 03:40:19;;;;;;;14.75;13.23;;;19.90;97.80;;;;;;5092556;28;20385;-59
2021/09/11 03:42:44;;;;;;;14.63;13.20;;;20.00;97.60;;;;;;5091527;28;20028;-59
2021/09/11 03:45:11;;;;;;;14.32;12.88;;;20.10;97.40;;;;;;5092995;28;20024;-59
2021/09/11 03:47:36;;;;;;;14.10;12.80;;;20.10;97.40;;;;;;5094644;28;20024;-59
2021/09/11 03:50:06;;;;;;;12.65;11.55;;;20.20;97.50;;;;;;5096156;28;20028;-59
2021/09/11 03:52:32;;;;;;;13.07;11.80;;;20.20;97.30;;;;;;5096069;28;20036;-59
2021/09/11 03:54:58;;;;;;;12.63;11.43;;;20.30;97.20;;;;;;5096448;28;20032;-60
2021/09/11 03:57:23;;;;;;;12.60;11.50;;;20.30;97.00;;;;;;5096047;28;20093;-58
2021/09/11 03:59:49;;;;;;;12.73;11.35;;;20.40;97.10;;;;;;5096215;28;20433;-59
2021/09/11 04:02:14;;;;;;;14.25;12.95;;;20.40;97.10;;;;;;5095416;28;20143;-59
2021/09/11 04:04:40;;;;;;;13.60;12.20;;;20.50;97.00;;;;;;5095966;28;20032;-58
2021/09/11 04:07:05;;;;;;;12.90;11.65;;;20.50;96.90;;;;;;5095676;28;20056;-58
2021/09/11 04:09:31;;;;;;;12.93;10.85;;;20.50;96.80;;;;;;5095658;28;20032;-58
2021/09/11 04:11:56;;;;;;;13.43;12.15;;;20.60;96.90;;;;;;5095533;28;20028;-61
2021/09/11 04:14:23;;;;;;;12.82;11.63;;;20.60;96.70;;;;;;5095737;28;20032;-59
2021/09/11 04:16:48;;;;;;;12.35;11.25;;;20.70;96.70;;;;;;5096001;28;20040;-58
2021/09/11 04:19:14;;;;;;;12.50;11.40;;;20.70;96.70;;;;;;5096479;28;20134;-58
2021/09/11 04:21:39;;;;;;;19.50;12.75;;;20.80;96.50;;;;;;5095567;28;20149;-57
2021/09/11 04:24:06;;;;;;;12.98;11.68;;;20.60;96.50;;;;;;5094820;28;20051;-59
2021/09/11 04:26:33;;;;;;;14.60;12.50;;;20.60;96.70;;;;;;5096016;28;20036;-59
2021/09/11 04:28:59;;;;;;;13.68;12.27;;;20.70;96.60;;;;;;5095964;28;20031;-58
2021/09/11 04:31:24;;;;;;;12.05;10.93;;;20.70;96.60;;;;;;5095549;28;20032;-58
2021/09/11 04:33:50;;;;;;;22.45;18.17;;;20.60;96.60;;;;;;5095359;28;20047;-59
2021/09/11 04:36:16;;;;;;;14.10;12.63;;;20.70;96.50;;;;;;5095836;28;20044;-59
2021/09/11 04:38:41;;;;;;;14.30;12.77;;;20.60;96.70;;;;;;5095325;28;20028;-58
2021/09/11 04:41:08;;;;;;;13.52;12.32;;;20.30;97.30;;;;;;5094259;28;20063;-58
2021/09/11 04:43:33;;;;;;;12.55;11.25;;;20.20;97.60;;;;;;5094581;28;20066;-59
2021/09/11 04:45:59;;;;;;;13.20;11.80;;;20.20;97.60;;;;;;5095182;28;20079;-58
2021/09/11 04:48:25;;;;;;;13.93;12.63;;;20.20;97.70;;;;;;5095532;28;20406;-58
2021/09/11 04:50:51;;;;;;;13.68;12.25;;;20.20;97.80;;;;;;5095495;28;20055;-59
2021/09/11 04:53:16;;;;;;;13.85;12.05;;;20.10;97.90;;;;;;5094640;28;20039;-58
2021/09/11 04:55:42;;;;;;;13.30;12.00;;;20.20;97.70;;;;;;5094756;28;20386;-57
2021/09/11 04:58:08;;;;;;;13.88;12.50;;;20.30;97.60;;;;;;5094759;28;20024;-58
2021/09/11 05:00:33;;;;;;;13.38;12.10;;;20.20;97.80;;;;;;5094425;28;20123;-57
2021/09/11 05:02:59;;;;;;;13.27;12.10;;;20.20;97.90;;;;;;5094399;28;20478;-60
2021/09/11 05:05:25;;;;;;;13.60;12.30;;;20.10;98.00;;;;;;5094630;28;20502;-58
2021/09/11 05:07:57;;;;;;;12.73;11.48;;;20.00;98.30;;;;;;5095080;28;20032;-59
2021/09/11 05:10:23;;;;;;;15.32;12.75;;;20.00;98.20;;;;;;5094662;28;20024;-60
2021/09/11 05:12:49;;;;;;;19.45;13.20;;;19.90;98.50;;;;;;5094289;28;20039;-58
2021/09/11 05:15:15;;;;;;;14.70;13.30;;;19.90;98.50;;;;;;5095385;28;20035;-59
2021/09/11 05:17:40;;;;;;;15.15;13.65;;;19.90;98.60;;;;;;5094795;28;20387;-58
2021/09/11 05:20:06;;;;;;;14.43;12.95;;;19.90;98.60;;;;;;5094053;28;20064;-59
2021/09/11 05:22:32;;;;;;;14.75;13.35;;;19.80;98.70;;;;;;5094254;28;20040;-58
2021/09/11 05:24:58;;;;;;;14.15;12.75;;;19.90;98.80;;;;;;5094963;28;20671;-58
2021/09/11 05:27:23;;;;;;;14.07;12.77;;;19.90;98.80;;;;;;5093021;28;20391;-58
2021/09/11 05:29:49;;;;;;;14.75;13.18;;;19.80;99.00;;;;;;5095072;28;20488;-59
2021/09/11 05:32:14;;;;;;;13.10;11.85;;;19.90;98.80;;;;;;5094685;28;20082;-59
2021/09/11 05:34:40;;;;;;;14.52;13.13;;;19.80;99.00;;;;;;5094716;28;20056;-58
2021/09/11 05:37:06;;;;;;;14.13;12.82;;;19.80;99.10;;;;;;5094957;28;20028;-59
2021/09/11 05:39:31;;;;;;;13.80;12.50;;;19.80;99.20;;;;;;5094135;28;20028;-59
2021/09/11 05:41:57;;;;;;;13.57;12.27;;;19.80;99.00;;;;;;5094103;28;20174;-58
2021/09/11 05:44:23;;;;;;;15.20;12.88;;;19.80;99.00;;;;;;5093650;28;20124;-59
2021/09/11 05:46:48;;;;;;;14.00;12.55;;;19.90;99.00;;;;;;5092734;28;20043;-60
2021/09/11 05:49:14;;;;;;;13.00;11.80;;;20.00;98.80;;;;;;5094214;28;20390;-61
2021/09/11 05:51:39;;;;;;;12.88;11.68;;;20.10;98.60;;;;;;5093951;28;20032;-59
2021/09/11 05:54:05;;;;;;;13.45;12.05;;;20.20;98.50;;;;;;5093238;28;20032;-59
2021/09/11 05:56:31;;;;;;;14.30;12.70;;;20.30;98.40;;;;;;5093713;28;20036;-59
2021/09/11 05:58:56;;;;;;;11.55;10.52;;;20.30;98.10;;;;;;5094097;28;20395;-59
2021/09/11 06:01:22;;;;;;;13.25;11.93;;;20.40;98.10;;;;;;5092279;28;20109;-60
2021/09/11 06:03:47;;;;;;;14.98;11.93;;;20.20;98.50;;;;;;5092986;28;20043;-60
2021/09/11 06:06:13;;;;;;;14.40;13.00;;;20.30;98.50;;;;;;5092024;28;20439;-59
2021/09/11 06:08:39;;;;;;;14.00;12.70;;;20.30;98.40;;;;;;5092880;28;20082;-58
2021/09/11 06:11:04;;;;;;;12.82;11.63;;;20.30;98.40;;;;;;5093736;28;20542;-59
2021/09/11 06:13:30;;;;;;;12.90;11.40;;;20.30;98.40;;;;;;5093280;28;20047;-59
2021/09/11 06:15:58;;;;;;;15.05;13.45;;;20.30;98.20;;;;;;5093794;28;20071;-59
2021/09/11 06:18:24;;;;;;;13.20;11.95;;;20.30;98.40;;;;;;5093391;28;20060;-58
2021/09/11 06:20:50;;;;;;;14.00;12.55;;;20.30;98.40;;;;;;5093945;28;20120;-59
2021/09/11 06:23:15;;;;;;;14.02;12.73;;;20.40;98.20;;;;;;5091424;28;20039;-57
2021/09/11 06:25:41;;;;;;;13.27;11.88;;;20.40;98.20;;;;;;5093375;28;20043;-59
2021/09/11 06:28:06;;;;;;;13.55;12.35;;;20.40;98.30;;;;;;5092763;28;20467;-60
2021/09/11 06:30:32;;;;;;;14.23;12.68;;;20.60;98.00;;;;;;5093134;28;20511;-59
2021/09/11 06:32:57;;;;;;;13.77;12.35;;;20.60;98.10;;;;;;5092995;28;20032;-59
2021/09/11 06:35:23;;;;;;;13.25;11.98;;;20.50;98.40;;;;;;5092991;28;20169;-59
2021/09/11 06:37:51;;;;;;;14.10;12.75;;;20.40;98.50;;;;;;5093134;28;20040;-62
2021/09/11 06:40:17;;;;;;;12.65;11.43;;;20.50;98.40;;;;;;5092692;28;20063;-59
2021/09/11 06:42:43;;;;;;;13.45;12.25;;;20.50;98.20;;;;;;5092384;28;20087;-59
2021/09/11 06:45:08;;;;;;;13.77;12.38;;;20.60;98.20;;;;;;5092000;28;20032;-60
2021/09/11 06:47:34;;;;;;;12.52;11.27;;;20.70;98.00;;;;;;5093858;28;20096;-59
2021/09/11 06:50:00;;;;;;;12.13;11.02;;;20.70;97.90;;;;;;5092226;28;20035;-60
2021/09/11 06:52:25;;;;;;;13.60;12.25;;;20.70;98.00;;;;;;5092834;28;20498;-60
2021/09/11 06:54:51;;;;;;;13.30;12.02;;;20.70;97.90;;;;;;5092871;28;20119;-60
2021/09/11 06:57:16;;;;;;;12.63;11.32;;;20.70;98.10;;;;;;5092324;28;20032;-59
2021/09/11 06:59:42;;;;;;;14.30;12.82;;;20.60;98.50;;;;;;5092398;28;20029;-59
2021/09/11 07:02:07;;;;;;;14.25;12.88;;;20.50;98.40;;;;;;5092087;28;20451;-57
2021/09/11 07:04:33;;;;;;;15.68;12.63;;;20.60;98.50;;;;;;5092243;28;20036;-59
2021/09/11 07:06:59;;;;;;;12.57;11.43;;;20.70;98.40;;;;;;5092508;28;20036;-59
2021/09/11 07:09:24;;;;;;;13.25;11.95;;;20.80;98.20;;;;;;5074287;28;20089;-58
2021/09/11 07:11:53;;;;;;;12.40;11.18;;;20.80;98.40;;;;;;5092261;28;20036;-58
2021/09/11 07:14:18;;;;;;;12.32;11.07;;;20.70;98.50;;;;;;5090777;28;20067;-60
2021/09/11 07:16:44;;;;;;;11.30;10.20;;;20.80;98.20;;;;;;5092238;28;20082;-59
2021/09/11 07:19:10;;;;;;;11.23;10.18;;;20.90;98.20;;;;;;5094038;28;20082;-59
2021/09/11 07:21:36;;;;;;;12.07;10.88;;;20.80;98.10;;;;;;5096864;28;20399;-59
2021/09/11 07:24:02;;;;;;;11.23;10.18;;;20.70;98.10;;;;;;5097393;28;20040;-57
2021/09/11 07:26:27;;;;;;;12.90;10.00;;;20.70;98.10;;;;;;5097083;28;20032;-60
2021/09/11 07:28:53;;;;;;;13.15;11.90;;;20.70;98.00;;;;;;5096638;28;20032;-60
2021/09/11 07:31:18;;;;;;;12.70;11.45;;;20.60;98.20;;;;;;5095793;28;20062;-59
2021/09/11 07:33:44;;;;;;;12.18;10.98;;;20.50;98.50;;;;;;5095417;28;20103;-59
2021/09/11 07:36:10;;;;;;;11.52;10.38;;;20.70;98.30;;;;;;5096309;28;20032;-59
2021/09/11 07:38:37;;;;;;;12.55;11.25;;;20.70;98.20;;;;;;5096459;28;20085;-59
2021/09/11 07:41:04;;;;;;;12.55;11.25;;;20.80;98.20;;;;;;5096059;28;20118;-60
2021/09/11 07:43:30;;;;;;;12.18;10.90;;;20.90;98.10;;;;;;5094765;28;20028;-59
2021/09/11 07:45:56;;;;;;;11.13;10.02;;;21.00;97.70;;;;;;5096496;28;20073;-58
2021/09/11 07:48:22;;;;;;;10.73;9.75;;;21.10;97.70;;;;;;5096748;28;20040;-58
2021/09/11 07:50:47;;;;;;;10.25;9.35;;;21.30;97.10;;;;;;5096366;28;20356;-59
2021/09/11 07:53:15;;;;;;;10.48;9.48;;;21.20;97.30;;;;;;5096649;28;20040;-59
2021/09/11 07:55:41;;;;;;;10.63;9.20;;;21.40;97.30;;;;;;5096836;28;20036;-60
2021/09/11 07:58:07;;;;;;;9.52;8.65;;;21.40;97.30;;;;;;5096349;28;20372;-58
2021/09/11 08:00:33;;;;;;;10.25;9.23;;;21.30;97.00;;;;;;5096307;28;20085;-58
2021/09/11 08:02:58;;;;;;;11.27;10.18;;;21.50;96.90;;;;;;5095937;28;20036;-58
2021/09/11 08:05:24;;;;;;;10.73;9.52;;;21.50;96.60;;;;;;5095973;28;20067;-59
2021/09/11 08:07:50;;;;;;;11.52;10.45;;;21.50;97.00;;;;;;5096134;28;20396;-59
2021/09/11 08:10:16;;;;;;;9.45;8.57;;;21.50;96.50;;;;;;5096140;28;20028;-59
2021/09/11 08:12:42;;;;;;;9.70;8.70;;;21.60;96.50;;;;;;5096039;28;20032;-59
2021/09/11 08:15:09;;;;;;;8.70;7.80;;;21.70;96.60;;;;;;5096470;28;20035;-60
2021/09/11 08:17:35;;;;;;;8.82;7.88;;;21.90;96.20;;;;;;5095671;28;20069;-59
2021/09/11 08:20:02;;;;;;;9.75;7.65;;;21.90;96.30;;;;;;5096456;28;20098;-59
2021/09/11 08:22:27;;;;;;;8.85;7.95;;;21.60;96.30;;;;;;5095114;28;20066;-58
2021/09/11 08:24:53;;;;;;;9.85;8.52;;;21.70;96.40;;;;;;5095953;28;20055;-57
2021/09/11 08:27:19;;;;;;;9.55;7.63;;;21.60;96.50;;;;;;5096438;28;20020;-60
2021/09/11 08:29:45;;;;;;;9.30;8.05;;;21.40;96.60;;;;;;5095363;28;20058;-60
2021/09/11 08:32:11;;;;;;;7.82;6.95;;;21.60;96.50;;;;;;5094363;28;20060;-59
2021/09/11 08:34:36;;;;;;;11.32;9.32;;;21.70;96.60;;;;;;5095515;28;20032;-60
2021/09/11 08:37:02;;;;;;;9.73;8.82;;;21.60;96.20;;;;;;5095324;28;20501;-59
2021/09/11 08:39:28;;;;;;;10.05;9.05;;;21.60;96.30;;;;;;5095772;28;20040;-59
2021/09/11 08:41:55;;;;;;;9.90;8.40;;;22.00;95.70;;;;;;5095206;28;20047;-58
2021/09/11 08:44:23;;;;;;;8.68;7.88;;;22.00;95.60;;;;;;5094771;28;20579;-57
2021/09/11 08:46:50;;;;;;;9.68;8.68;;;22.00;95.60;;;;;;5095021;28;20031;-58
2021/09/11 08:49:16;;;;;;;9.55;8.65;;;22.00;95.60;;;;;;5077275;28;20039;-58
2021/09/11 08:51:42;;;;;;;11.00;9.05;;;21.70;95.70;;;;;;5094714;28;20033;-58
2021/09/11 08:54:07;;;;;;;8.23;7.43;;;21.90;95.40;;;;;;5094745;28;20042;-59
2021/09/11 08:56:40;;;;;;;8.05;7.22;;;22.00;95.20;;;;;;5093115;28;20038;-59
2021/09/11 08:59:11;;;;;;;8.35;7.53;;;22.40;95.10;;;;;;5093459;28;20050;-59
2021/09/11 09:01:37;;;;;;;11.90;7.55;;;22.70;94.50;;;;;;5093362;28;20036;-58
2021/09/11 09:04:04;;;;;;;9.18;8.27;;;22.90;94.30;;;;;;5094467;28;20152;-59
2021/09/11 09:06:33;;;;;;;9.98;8.20;;;22.80;94.10;;;;;;5094325;28;20067;-58
2021/09/11 09:09:09;;;;;;;8.63;7.65;;;22.50;94.50;;;;;;5095306;28;20054;-59
2021/09/11 09:11:36;;;;;;;10.07;7.03;;;22.50;94.70;;;;;;5094318;28;20050;-59
2021/09/11 09:14:07;;;;;;;8.25;7.45;;;22.40;95.10;;;;;;5080425;28;20127;-59
2021/09/11 09:16:36;;;;;;;7.70;6.97;;;22.60;94.60;;;;;;5074109;28;20388;-58
2021/09/11 09:19:17;;;;;;;8.07;7.28;;;22.80;94.50;;;;;;5093389;28;20518;-58
2021/09/11 09:21:44;;;;;;;9.43;7.20;;;22.60;94.90;;;;;;5094468;28;20031;-59
2021/09/11 09:24:11;;;;;;;7.00;6.38;;;22.60;94.70;;;;;;5093110;28;20119;-58
2021/09/11 09:26:54;;;;;;;8.13;6.40;;;22.80;94.10;;;;;;5094062;28;20478;-58
2021/09/11 09:29:21;;;;;;;6.85;6.20;;;22.60;94.30;;;;;;5093231;28;20115;-61
2021/09/11 09:31:50;;;;;;;8.48;7.20;;;22.90;94.10;;;;;;5094046;28;20055;-59
2021/09/11 09:34:37;;;;;;;7.38;6.68;;;22.90;93.80;;;;;;5093495;28;20132;-61
2021/09/11 09:37:08;;;;;;;8.98;6.78;;;23.10;93.70;;;;;;5094659;28;20491;-58
2021/09/11 09:39:48;;;;;;;8.68;6.50;;;23.10;93.50;;;;;;5094481;28;20032;-57
2021/09/11 09:42:15;;;;;;;9.10;7.35;;;23.20;93.70;;;;;;5093229;28;20107;-59
2021/09/11 09:44:53;;;;;;;7.38;6.57;;;23.10;93.40;;;;;;5091933;28;20039;-59
2021/09/11 09:47:24;;;;;;;6.65;6.05;;;23.30;93.30;;;;;;5094299;28;20392;-62
2021/09/11 09:50:09;;;;;;;6.65;5.55;;;23.20;93.30;;;;;;5094946;28;20035;-58
2021/09/11 09:52:36;;;;;;;6.22;5.55;;;23.10;93.30;;;;;;5093575;28;20111;-58
2021/09/11 09:55:02;;;;;;;6.18;5.40;;;23.10;93.50;;;;;;5093152;28;20017;-58
2021/09/11 09:57:29;;;;;;;6.38;5.40;;;23.10;93.30;;;;;;5094303;28;20109;-59
2021/09/11 09:59:56;;;;;;;5.50;5.00;;;23.20;93.10;;;;;;5093719;28;20036;-58
2021/09/11 10:02:21;;;;;;;6.47;5.32;;;23.10;93.10;;;;;;5093265;28;20096;-59
2021/09/11 10:04:55;;;;;;;5.70;5.18;;;22.60;93.90;;;;;;5093216;28;20111;-59
2021/09/11 10:07:22;;;;;;;5.70;4.85;;;22.60;93.90;;;;;;5093357;28;20119;-58
2021/09/11 10:09:49;;;;;;;5.72;4.53;;;22.80;93.50;;;;;;5093923;28;20028;-62
2021/09/11 10:12:29;;;;;;;4.80;4.32;;;23.00;93.20;;;;;;5094134;28;20028;-60
2021/09/11 10:15:35;;;;;;;5.40;4.90;;;23.50;92.60;;;;;;5091917;28;20088;-60
2021/09/11 10:18:02;;;;;;;5.07;4.55;;;23.60;92.30;;;;;;5093425;28;20048;-61
2021/09/11 10:20:48;;;;;;;5.05;4.50;;;23.30;91.90;;;;;;5093816;28;20036;-63
2021/09/11 10:23:14;;;;;;;6.95;4.88;;;23.40;92.70;;;;;;5092592;28;20028;-61
2021/09/11 10:25:49;;;;;;;5.43;4.40;;;23.60;92.40;;;;;;5094519;28;20051;-63
2021/09/11 10:28:18;;;;;;;5.13;4.63;;;23.50;92.40;;;;;;5093525;28;20024;-59
2021/09/11 10:31:06;;;;;;;9.25;5.18;;;23.60;92.20;;;;;;5092991;28;20028;-58
2021/09/11 10:33:47;;;;;;;6.18;4.80;;;23.70;91.60;;;;;;5093851;28;20057;-56
2021/09/11 10:36:18;;;;;;;8.23;4.60;;;23.60;91.60;;;;;;5092408;28;20038;-61
2021/09/11 10:38:44;;;;;;;5.28;4.75;;;23.80;91.70;;;;;;5093050;28;20060;-56
2021/09/11 10:41:13;;;;;;;12.93;5.90;;;24.10;90.70;;;;;;5093090;28;20071;-56
2021/09/11 10:44:05;;;;;;;5.70;5.20;;;24.10;90.60;;;;;;5092297;28;20114;-62
2021/09/11 10:46:51;;;;;;;8.38;5.60;;;24.30;90.40;;;;;;5093092;28;20028;-58
2021/09/11 10:49:37;;;;;;;6.97;5.30;;;24.40;90.20;;;;;;5092945;28;20028;-59
2021/09/11 10:52:06;;;;;;;6.15;5.20;;;24.40;90.30;;;;;;5092930;28;20544;-57
2021/09/11 10:54:42;;;;;;;6.05;5.43;;;24.10;90.50;;;;;;5092285;28;20039;-57
2021/09/11 10:57:16;;;;;;;7.78;6.00;;;23.80;90.50;;;;;;5091576;28;20028;-64
2021/09/11 10:59:47;;;;;;;6.13;5.53;;;24.10;90.60;;;;;;5091664;28;20046;-64
2021/09/11 11:02:35;;;;;;;6.07;5.40;;;24.20;88.70;;;;;;5093693;28;20040;-66
2021/09/11 11:05:14;;;;;;;6.25;5.47;;;24.10;90.10;;;;;;5090877;28;20909;-57
2021/09/11 11:07:47;;;;;;;8.60;5.90;;;24.30;89.90;;;;;;5091536;28;20036;-64
2021/09/11 11:10:18;;;;;;;5.50;4.95;;;24.40;90.20;;;;;;5093144;28;20072;-64
2021/09/11 11:12:46;;;;;;;7.55;5.80;;;24.50;89.50;;;;;;5092380;28;20036;-59
2021/09/11 11:15:28;;;;;;;5.57;5.07;;;24.50;89.10;;;;;;5092662;28;20035;-52
2021/09/11 11:17:54;;;;;;;8.40;5.50;;;24.30;90.10;;;;;;5093066;28;20040;-67
2021/09/11 11:20:29;;;;;;;6.95;6.05;;;24.40;90.20;;;;;;5092898;28;20089;-69
2021/09/11 11:23:00;;;;;;;6.30;5.60;;;24.60;90.00;;;;;;5074892;28;20051;-70
2021/09/11 11:25:31;;;;;;;7.18;5.90;;;24.70;89.70;;;;;;5094445;28;20048;-66
2021/09/11 11:27:57;;;;;;;7.50;5.75;;;24.70;89.10;;;;;;5090847;28;20038;-65
2021/09/11 11:30:24;;;;;;;6.68;5.78;;;24.70;88.70;;;;;;5093342;28;20131;-68
2021/09/11 11:32:49;;;;;;;6.72;5.75;;;24.40;88.70;;;;;;5091283;28;20055;-65
2021/09/11 11:35:15;;;;;;;6.90;6.15;;;24.40;90.00;;;;;;5093592;28;20075;-65
2021/09/11 11:37:41;;;;;;;7.88;6.20;;;24.30;90.00;;;;;;5092606;28;20039;-69
2021/09/11 11:40:13;;;;;;;8.27;6.80;;;24.10;90.60;;;;;;5092491;28;20047;-63
2021/09/11 11:42:43;;;;;;;7.22;6.55;;;24.10;90.10;;;;;;5090706;28;20122;-64
2021/09/11 11:45:14;;;;;;;7.55;6.82;;;23.90;90.40;;;;;;5092250;28;20088;-65
2021/09/11 11:48:06;;;;;;;6.75;5.97;;;24.20;89.50;;;;;;5091580;28;20487;-66
2021/09/11 11:50:43;;;;;;;7.75;7.00;;;24.60;89.30;;;;;;5091233;28;20035;-64
2021/09/11 11:53:26;;;;;;;8.02;7.22;;;24.30;88.90;;;;;;5090776;28;20036;-65
2021/09/11 11:55:54;;;;;;;7.25;6.65;;;24.30;89.40;;;;;;5091382;28;20032;-64
2021/09/11 11:58:22;;;;;;;7.78;7.03;;;24.60;88.50;;;;;;5092675;28;20038;-63
2021/09/11 12:00:51;;;;;;;7.55;6.75;;;24.80;89.00;;;;;;5070801;28;20028;-66
2021/09/11 12:03:36;;;;;;;7.30;6.65;;;25.10;85.50;;;;;;5071934;28;20044;-67
2021/09/11 12:06:06;;;;;;;6.80;6.10;;;24.90;85.60;;;;;;5089651;28;20468;-68
2021/09/11 12:08:36;;;;;;;7.40;6.70;;;24.70;86.00;;;;;;5076933;28;20021;-67
2021/09/11 12:11:04;;;;;;;7.60;6.53;;;24.80;85.50;;;;;;5077026;28;20050;-67
2021/09/11 12:13:31;;;;;;;6.55;5.95;;;25.00;85.40;;;;;;5091804;28;20033;-67
2021/09/11 12:15:56;;;;;;;6.07;5.47;;;25.20;83.80;;;;;;5077585;28;20030;-70
2021/09/11 12:18:22;;;;;;;6.30;5.70;;;25.50;83.20;;;;;;5093517;28;20107;-70
2021/09/11 12:20:53;;;;;;;6.57;5.97;;;25.50;82.80;;;;;;5098641;28;20118;-68
2021/09/11 12:23:27;;;;;;;6.82;5.88;;;25.40;83.30;;;;;;5097379;28;20130;-67
2021/09/11 12:25:53;;;;;;;6.80;5.93;;;25.20;84.20;;;;;;5098727;28;20017;-69
2021/09/11 12:28:38;;;;;;;7.28;5.63;;;25.40;83.80;;;;;;5097765;28;20024;-72
2021/09/11 12:31:19;;;;;;;7.70;6.10;;;25.50;83.20;;;;;;5096868;28;20028;-67
2021/09/11 12:33:53;;;;;;;6.63;5.95;;;25.90;82.30;;;;;;5096143;28;20031;-64
2021/09/11 12:36:37;;;;;;;6.90;6.25;;;26.00;82.40;;;;;;5096291;28;20051;-66